sensor_id;sensor_type;location;lat;lon;timestamp;P1;durP1;ratioP1;P2;durP2;ratioP2
73331;SDS011;61560;33.718;73.040;2023-04-24T00:00:16;8.60;;;4.85;;
73331;SDS011;61560;33.718;73.040;2023-04-24T00:02:43;8.93;;;4.95;;
73331;SDS011;61560;33.718;73.040;2023-04-24T00:05:14;8.68;;;4.32;;
73331;SDS011;61560;33.718;73.040;2023-04-24T00:07:44;6.50;;;4.22;;
73331;SDS011;61560;33.718;73.040;2023-04-24T00:10:11;10.70;;;5.05;;
73331;SDS011;61560;33.718;73.040;2023-04-24T00:12:38;9.68;;;5.13;;
73331;SDS011;61560;33.718;73.040;2023-04-24T00:15:06;7.65;;;4.53;;
73331;SDS011;61560;33.718;73.040;2023-04-24T00:17:33;6.95;;;4.10;;
73331;SDS011;61560;33.718;73.040;2023-04-24T00:20:01;9.52;;;4.07;;
73331;SDS011;61560;33.718;73.040;2023-04-24T00:22:30;8.93;;;5.10;;
73331;SDS011;61560;33.718;73.040;2023-04-24T00:24:57;8.68;;;5.10;;
73331;SDS011;61560;33.718;73.040;2023-04-24T00:27:24;8.45;;;4.63;;
73331;SDS011;61560;33.718;73.040;2023-04-24T00:29:51;15.75;;;4.90;;
73331;SDS011;61560;33.718;73.040;2023-04-24T00:32:18;9.68;;;4.55;;
73331;SDS011;61560;33.718;73.040;2023-04-24T00:34:45;7.38;;;4.60;;
73331;SDS011;61560;33.718;73.040;2023-04-24T00:37:12;10.20;;;4.43;;
73331;SDS011;61560;33.718;73.040;2023-04-24T00:39:39;8.38;;;4.28;;
73331;SDS011;61560;33.718;73.040;2023-04-24T00:42:06;6.32;;;4.30;;
73331;SDS011;61560;33.718;73.040;2023-04-24T00:44:34;7.78;;;4.97;;
73331;SDS011;61560;33.718;73.040;2023-04-24T00:47:01;9.55;;;4.90;;
73331;SDS011;61560;33.718;73.040;2023-04-24T00:49:29;7.47;;;4.30;;
73331;SDS011;61560;33.718;73.040;2023-04-24T00:51:57;15.35;;;5.80;;
73331;SDS011;61560;33.718;73.040;2023-04-24T00:54:26;9.00;;;5.20;;
73331;SDS011;61560;33.718;73.040;2023-04-24T00:56:52;9.25;;;4.68;;
73331;SDS011;61560;33.718;73.040;2023-04-24T00:59:20;10.02;;;3.65;;
73331;SDS011;61560;33.718;73.040;2023-04-24T01:01:47;8.07;;;3.67;;
73331;SDS011;61560;33.718;73.040;2023-04-24T01:04:15;8.25;;;3.92;;
73331;SDS011;61560;33.718;73.040;2023-04-24T01:06:44;6.90;;;3.88;;
73331;SDS011;61560;33.718;73.040;2023-04-24T01:09:16;7.80;;;3.97;;
73331;SDS011;61560;33.718;73.040;2023-04-24T01:14:12;12.02;;;3.50;;
73331;SDS011;61560;33.718;73.040;2023-04-24T01:16:40;7.78;;;4.15;;
73331;SDS011;61560;33.718;73.040;2023-04-24T01:19:07;13.65;;;3.72;;
73331;SDS011;61560;33.718;73.040;2023-04-24T01:21:37;7.40;;;3.80;;
73331;SDS011;61560;33.718;73.040;2023-04-24T01:24:06;6.20;;;3.25;;
73331;SDS011;61560;33.718;73.040;2023-04-24T01:26:33;8.18;;;3.83;;
73331;SDS011;61560;33.718;73.040;2023-04-24T01:29:01;9.63;;;3.65;;
73331;SDS011;61560;33.718;73.040;2023-04-24T01:31:28;7.82;;;3.88;;
73331;SDS011;61560;33.718;73.040;2023-04-24T01:33:56;8.10;;;3.90;;
73331;SDS011;61560;33.718;73.040;2023-04-24T01:36:23;7.03;;;3.47;;
73331;SDS011;61560;33.718;73.040;2023-04-24T01:38:53;11.95;;;4.18;;
73331;SDS011;61560;33.718;73.040;2023-04-24T01:41:20;6.18;;;4.03;;
73331;SDS011;61560;33.718;73.040;2023-04-24T01:43:50;8.25;;;4.00;;
73331;SDS011;61560;33.718;73.040;2023-04-24T01:46:19;8.88;;;4.53;;
73331;SDS011;61560;33.718;73.040;2023-04-24T01:48:47;7.10;;;4.40;;
73331;SDS011;61560;33.718;73.040;2023-04-24T01:51:14;7.82;;;4.32;;
73331;SDS011;61560;33.718;73.040;2023-04-24T01:53:42;10.30;;;4.40;;
73331;SDS011;61560;33.718;73.040;2023-04-24T01:56:09;9.07;;;5.25;;
73331;SDS011;61560;33.718;73.040;2023-04-24T01:58:36;7.50;;;4.45;;
73331;SDS011;61560;33.718;73.040;2023-04-24T02:01:03;6.75;;;4.50;;
73331;SDS011;61560;33.718;73.040;2023-04-24T02:03:33;8.00;;;3.97;;
73331;SDS011;61560;33.718;73.040;2023-04-24T02:06:00;6.85;;;3.85;;
73331;SDS011;61560;33.718;73.040;2023-04-24T02:08:27;11.20;;;4.30;;
73331;SDS011;61560;33.718;73.040;2023-04-24T02:10:54;6.03;;;3.85;;
73331;SDS011;61560;33.718;73.040;2023-04-24T02:13:22;6.35;;;3.83;;
73331;SDS011;61560;33.718;73.040;2023-04-24T02:15:48;9.48;;;4.20;;
73331;SDS011;61560;33.718;73.040;2023-04-24T02:18:15;10.82;;;4.53;;
73331;SDS011;61560;33.718;73.040;2023-04-24T02:20:42;6.05;;;3.78;;
73331;SDS011;61560;33.718;73.040;2023-04-24T02:23:09;15.23;;;4.78;;
73331;SDS011;61560;33.718;73.040;2023-04-24T02:25:37;7.93;;;4.47;;
73331;SDS011;61560;33.718;73.040;2023-04-24T02:28:06;8.02;;;4.70;;
73331;SDS011;61560;33.718;73.040;2023-04-24T02:30:33;7.40;;;4.72;;
73331;SDS011;61560;33.718;73.040;2023-04-24T02:33:00;7.40;;;4.45;;
73331;SDS011;61560;33.718;73.040;2023-04-24T02:35:27;8.10;;;4.82;;
73331;SDS011;61560;33.718;73.040;2023-04-24T02:37:55;7.20;;;4.95;;
73331;SDS011;61560;33.718;73.040;2023-04-24T02:40:22;7.40;;;4.93;;
73331;SDS011;61560;33.718;73.040;2023-04-24T02:42:50;11.05;;;5.22;;
73331;SDS011;61560;33.718;73.040;2023-04-24T02:45:17;7.55;;;5.25;;
73331;SDS011;61560;33.718;73.040;2023-04-24T02:47:44;9.57;;;4.47;;
73331;SDS011;61560;33.718;73.040;2023-04-24T02:50:11;10.73;;;4.90;;
73331;SDS011;61560;33.718;73.040;2023-04-24T02:52:42;8.55;;;5.32;;
73331;SDS011;61560;33.718;73.040;2023-04-24T02:55:09;9.20;;;4.95;;
73331;SDS011;61560;33.718;73.040;2023-04-24T02:57:38;9.63;;;5.43;;
73331;SDS011;61560;33.718;73.040;2023-04-24T03:00:05;8.30;;;4.88;;
73331;SDS011;61560;33.718;73.040;2023-04-24T03:02:33;7.63;;;4.55;;
73331;SDS011;61560;33.718;73.040;2023-04-24T03:05:00;7.40;;;4.90;;
73331;SDS011;61560;33.718;73.040;2023-04-24T03:07:28;8.52;;;4.97;;
73331;SDS011;61560;33.718;73.040;2023-04-24T03:09:55;8.23;;;4.90;;
73331;SDS011;61560;33.718;73.040;2023-04-24T03:12:24;7.18;;;5.07;;
73331;SDS011;61560;33.718;73.040;2023-04-24T03:14:52;10.88;;;4.88;;
73331;SDS011;61560;33.718;73.040;2023-04-24T03:17:23;11.07;;;4.93;;
73331;SDS011;61560;33.718;73.040;2023-04-24T03:19:50;9.57;;;5.10;;
73331;SDS011;61560;33.718;73.040;2023-04-24T03:22:17;11.02;;;4.97;;
73331;SDS011;61560;33.718;73.040;2023-04-24T03:24:44;11.00;;;4.78;;
73331;SDS011;61560;33.718;73.040;2023-04-24T03:27:14;9.75;;;5.03;;
73331;SDS011;61560;33.718;73.040;2023-04-24T03:29:50;8.27;;;4.95;;
73331;SDS011;61560;33.718;73.040;2023-04-24T03:32:26;13.68;;;5.18;;
73331;SDS011;61560;33.718;73.040;2023-04-24T03:34:54;11.02;;;5.68;;
73331;SDS011;61560;33.718;73.040;2023-04-24T03:37:21;9.77;;;5.55;;
73331;SDS011;61560;33.718;73.040;2023-04-24T03:39:58;15.75;;;5.30;;
73331;SDS011;61560;33.718;73.040;2023-04-24T03:42:25;9.32;;;5.03;;
73331;SDS011;61560;33.718;73.040;2023-04-24T03:44:54;13.35;;;6.03;;
73331;SDS011;61560;33.718;73.040;2023-04-24T03:49:56;12.85;;;7.63;;
73331;SDS011;61560;33.718;73.040;2023-04-24T03:52:24;16.27;;;7.75;;
73331;SDS011;61560;33.718;73.040;2023-04-24T03:54:54;19.38;;;8.50;;
73331;SDS011;61560;33.718;73.040;2023-04-24T03:57:23;12.60;;;7.22;;
73331;SDS011;61560;33.718;73.040;2023-04-24T04:00:02;10.90;;;7.07;;
73331;SDS011;61560;33.718;73.040;2023-04-24T04:02:40;12.00;;;7.07;;
73331;SDS011;61560;33.718;73.040;2023-04-24T04:05:09;13.48;;;6.25;;
73331;SDS011;61560;33.718;73.040;2023-04-24T04:07:36;9.95;;;6.75;;
73331;SDS011;61560;33.718;73.040;2023-04-24T04:10:03;8.80;;;6.50;;
73331;SDS011;61560;33.718;73.040;2023-04-24T04:12:30;10.60;;;5.93;;
73331;SDS011;61560;33.718;73.040;2023-04-24T04:14:57;10.10;;;6.10;;
73331;SDS011;61560;33.718;73.040;2023-04-24T04:17:25;15.50;;;7.18;;
73331;SDS011;61560;33.718;73.040;2023-04-24T04:19:52;7.95;;;6.22;;
73331;SDS011;61560;33.718;73.040;2023-04-24T04:22:19;7.60;;;5.93;;
73331;SDS011;61560;33.718;73.040;2023-04-24T04:24:50;10.30;;;6.00;;
73331;SDS011;61560;33.718;73.040;2023-04-24T04:27:20;7.97;;;5.93;;
73331;SDS011;61560;33.718;73.040;2023-04-24T04:29:59;10.50;;;6.00;;
73331;SDS011;61560;33.718;73.040;2023-04-24T04:32:37;5.38;;;4.80;;
73331;SDS011;61560;33.718;73.040;2023-04-24T04:35:07;7.30;;;5.40;;
73331;SDS011;61560;33.718;73.040;2023-04-24T04:37:35;9.45;;;5.72;;
73331;SDS011;61560;33.718;73.040;2023-04-24T04:40:31;10.20;;;5.97;;
73331;SDS011;61560;33.718;73.040;2023-04-24T04:43:02;14.70;;;5.78;;
73331;SDS011;61560;33.718;73.040;2023-04-24T04:45:38;6.75;;;5.85;;
73331;SDS011;61560;33.718;73.040;2023-04-24T04:48:30;6.32;;;5.35;;
73331;SDS011;61560;33.718;73.040;2023-04-24T04:50:59;7.90;;;5.77;;
73331;SDS011;61560;33.718;73.040;2023-04-24T04:53:27;9.38;;;5.15;;
73331;SDS011;61560;33.718;73.040;2023-04-24T04:55:56;10.80;;;6.00;;
73331;SDS011;61560;33.718;73.040;2023-04-24T04:58:30;10.68;;;5.63;;
73331;SDS011;61560;33.718;73.040;2023-04-24T05:00:59;10.95;;;6.22;;
73331;SDS011;61560;33.718;73.040;2023-04-24T05:03:30;7.05;;;6.13;;
73331;SDS011;61560;33.718;73.040;2023-04-24T05:06:05;6.00;;;5.50;;
73331;SDS011;61560;33.718;73.040;2023-04-24T05:08:35;6.45;;;5.70;;
73331;SDS011;61560;33.718;73.040;2023-04-24T05:11:04;9.43;;;5.55;;
73331;SDS011;61560;33.718;73.040;2023-04-24T05:13:32;9.15;;;5.93;;
73331;SDS011;61560;33.718;73.040;2023-04-24T05:16:01;9.63;;;6.38;;
73331;SDS011;61560;33.718;73.040;2023-04-24T05:18:29;7.07;;;5.70;;
73331;SDS011;61560;33.718;73.040;2023-04-24T05:20:57;10.20;;;5.40;;
73331;SDS011;61560;33.718;73.040;2023-04-24T05:23:25;5.75;;;5.10;;
73331;SDS011;61560;33.718;73.040;2023-04-24T05:25:53;8.45;;;5.55;;
73331;SDS011;61560;33.718;73.040;2023-04-24T05:28:21;9.15;;;5.80;;
73331;SDS011;61560;33.718;73.040;2023-04-24T05:31:02;8.48;;;5.15;;
73331;SDS011;61560;33.718;73.040;2023-04-24T05:33:29;6.20;;;4.70;;
73331;SDS011;61560;33.718;73.040;2023-04-24T05:35:56;7.55;;;5.10;;
73331;SDS011;61560;33.718;73.040;2023-04-24T05:40:53;5.07;;;4.53;;
73331;SDS011;61560;33.718;73.040;2023-04-24T05:43:23;7.82;;;4.43;;
73331;SDS011;61560;33.718;73.040;2023-04-24T05:45:51;8.05;;;5.05;;
73331;SDS011;61560;33.718;73.040;2023-04-24T05:48:19;7.97;;;4.75;;
73331;SDS011;61560;33.718;73.040;2023-04-24T05:50:48;6.68;;;5.13;;
73331;SDS011;61560;33.718;73.040;2023-04-24T05:53:15;7.43;;;5.20;;
73331;SDS011;61560;33.718;73.040;2023-04-24T05:55:42;7.07;;;5.00;;
73331;SDS011;61560;33.718;73.040;2023-04-24T05:58:09;8.32;;;5.40;;
73331;SDS011;61560;33.718;73.040;2023-04-24T06:00:37;6.25;;;4.78;;
73331;SDS011;61560;33.718;73.040;2023-04-24T06:03:09;6.18;;;4.80;;
73331;SDS011;61560;33.718;73.040;2023-04-24T06:05:36;8.82;;;4.63;;
73331;SDS011;61560;33.718;73.040;2023-04-24T06:10:36;6.65;;;4.32;;
73331;SDS011;61560;33.718;73.040;2023-04-24T06:13:07;5.53;;;4.25;;
73331;SDS011;61560;33.718;73.040;2023-04-24T06:15:37;7.45;;;4.10;;
73331;SDS011;61560;33.718;73.040;2023-04-24T06:18:07;5.10;;;3.97;;
73331;SDS011;61560;33.718;73.040;2023-04-24T06:20:37;8.85;;;4.18;;
73331;SDS011;61560;33.718;73.040;2023-04-24T06:23:04;13.05;;;4.57;;
73331;SDS011;61560;33.718;73.040;2023-04-24T06:25:33;7.22;;;4.38;;
73331;SDS011;61560;33.718;73.040;2023-04-24T06:28:00;7.22;;;4.13;;
73331;SDS011;61560;33.718;73.040;2023-04-24T06:30:30;8.52;;;4.47;;
73331;SDS011;61560;33.718;73.040;2023-04-24T06:32:57;7.50;;;5.20;;
73331;SDS011;61560;33.718;73.040;2023-04-24T06:35:25;6.68;;;4.65;;
73331;SDS011;61560;33.718;73.040;2023-04-24T06:37:52;8.20;;;4.43;;
73331;SDS011;61560;33.718;73.040;2023-04-24T06:40:19;9.07;;;4.22;;
73331;SDS011;61560;33.718;73.040;2023-04-24T06:42:46;4.38;;;3.65;;
73331;SDS011;61560;33.718;73.040;2023-04-24T06:45:13;9.18;;;3.67;;
73331;SDS011;61560;33.718;73.040;2023-04-24T06:47:40;7.93;;;4.07;;
73331;SDS011;61560;33.718;73.040;2023-04-24T06:50:10;9.63;;;3.72;;
73331;SDS011;61560;33.718;73.040;2023-04-24T06:52:37;7.30;;;3.70;;
73331;SDS011;61560;33.718;73.040;2023-04-24T06:55:04;7.38;;;3.78;;
73331;SDS011;61560;33.718;73.040;2023-04-24T06:57:31;5.60;;;4.13;;
73331;SDS011;61560;33.718;73.040;2023-04-24T06:59:59;6.88;;;3.67;;
73331;SDS011;61560;33.718;73.040;2023-04-24T07:02:25;5.95;;;4.18;;
73331;SDS011;61560;33.718;73.040;2023-04-24T07:04:54;7.15;;;3.85;;
73331;SDS011;61560;33.718;73.040;2023-04-24T07:07:22;6.40;;;4.55;;
73331;SDS011;61560;33.718;73.040;2023-04-24T07:09:49;6.30;;;4.13;;
73331;SDS011;61560;33.718;73.040;2023-04-24T07:12:16;7.35;;;4.20;;
73331;SDS011;61560;33.718;73.040;2023-04-24T07:14:46;6.95;;;4.53;;
73331;SDS011;61560;33.718;73.040;2023-04-24T07:17:13;9.48;;;4.70;;
73331;SDS011;61560;33.718;73.040;2023-04-24T07:19:45;6.65;;;4.03;;
73331;SDS011;61560;33.718;73.040;2023-04-24T07:22:12;8.70;;;4.55;;
73331;SDS011;61560;33.718;73.040;2023-04-24T07:24:43;9.27;;;5.10;;
73331;SDS011;61560;33.718;73.040;2023-04-24T07:27:10;11.77;;;5.80;;
73331;SDS011;61560;33.718;73.040;2023-04-24T07:29:38;9.60;;;4.80;;
73331;SDS011;61560;33.718;73.040;2023-04-24T07:32:05;11.27;;;4.60;;
73331;SDS011;61560;33.718;73.040;2023-04-24T07:34:33;6.25;;;4.43;;
73331;SDS011;61560;33.718;73.040;2023-04-24T07:37:00;9.88;;;4.93;;
73331;SDS011;61560;33.718;73.040;2023-04-24T07:39:29;9.88;;;4.57;;
73331;SDS011;61560;33.718;73.040;2023-04-24T07:41:56;8.27;;;4.13;;
73331;SDS011;61560;33.718;73.040;2023-04-24T07:44:25;10.05;;;4.40;;
73331;SDS011;61560;33.718;73.040;2023-04-24T07:46:52;8.13;;;4.50;;
73331;SDS011;61560;33.718;73.040;2023-04-24T07:49:20;11.35;;;4.68;;
73331;SDS011;61560;33.718;73.040;2023-04-24T07:51:47;5.47;;;3.92;;
73331;SDS011;61560;33.718;73.040;2023-04-24T07:54:17;11.88;;;4.45;;
73331;SDS011;61560;33.718;73.040;2023-04-24T07:56:44;7.20;;;4.20;;
73331;SDS011;61560;33.718;73.040;2023-04-24T07:59:11;7.07;;;4.10;;
73331;SDS011;61560;33.718;73.040;2023-04-24T08:01:38;10.10;;;4.20;;
73331;SDS011;61560;33.718;73.040;2023-04-24T08:04:06;8.65;;;4.20;;
73331;SDS011;61560;33.718;73.040;2023-04-24T08:06:33;7.25;;;4.25;;
73331;SDS011;61560;33.718;73.040;2023-04-24T08:09:01;9.75;;;4.38;;
73331;SDS011;61560;33.718;73.040;2023-04-24T08:11:29;5.80;;;4.00;;
73331;SDS011;61560;33.718;73.040;2023-04-24T08:13:56;5.13;;;4.05;;
73331;SDS011;61560;33.718;73.040;2023-04-24T08:16:23;6.47;;;4.00;;
73331;SDS011;61560;33.718;73.040;2023-04-24T08:18:50;6.40;;;3.92;;
73331;SDS011;61560;33.718;73.040;2023-04-24T08:21:19;7.65;;;4.30;;
73331;SDS011;61560;33.718;73.040;2023-04-24T08:23:46;5.57;;;4.20;;
73331;SDS011;61560;33.718;73.040;2023-04-24T08:26:13;6.07;;;4.00;;
73331;SDS011;61560;33.718;73.040;2023-04-24T08:28:41;6.00;;;4.20;;
73331;SDS011;61560;33.718;73.040;2023-04-24T08:31:09;5.57;;;3.88;;
73331;SDS011;61560;33.718;73.040;2023-04-24T08:33:36;7.22;;;3.83;;
73331;SDS011;61560;33.718;73.040;2023-04-24T08:36:04;5.45;;;3.72;;
73331;SDS011;61560;33.718;73.040;2023-04-24T08:38:32;7.60;;;3.65;;
73331;SDS011;61560;33.718;73.040;2023-04-24T08:41:00;5.28;;;3.42;;
73331;SDS011;61560;33.718;73.040;2023-04-24T08:43:29;5.78;;;3.85;;
73331;SDS011;61560;33.718;73.040;2023-04-24T08:46:00;5.32;;;3.67;;
73331;SDS011;61560;33.718;73.040;2023-04-24T08:48:27;7.38;;;3.90;;
73331;SDS011;61560;33.718;73.040;2023-04-24T08:50:56;9.88;;;4.30;;
73331;SDS011;61560;33.718;73.040;2023-04-24T08:53:24;7.55;;;4.20;;
73331;SDS011;61560;33.718;73.040;2023-04-24T08:55:53;7.90;;;3.92;;
73331;SDS011;61560;33.718;73.040;2023-04-24T08:58:21;7.65;;;4.40;;
73331;SDS011;61560;33.718;73.040;2023-04-24T09:00:54;7.07;;;3.70;;
73331;SDS011;61560;33.718;73.040;2023-04-24T09:03:21;5.75;;;4.40;;
73331;SDS011;61560;33.718;73.040;2023-04-24T09:05:50;9.05;;;4.72;;
73331;SDS011;61560;33.718;73.040;2023-04-24T09:08:18;7.72;;;3.97;;
73331;SDS011;61560;33.718;73.040;2023-04-24T09:10:47;6.45;;;3.90;;
73331;SDS011;61560;33.718;73.040;2023-04-24T09:13:14;5.72;;;4.10;;
73331;SDS011;61560;33.718;73.040;2023-04-24T09:15:42;10.10;;;4.43;;
73331;SDS011;61560;33.718;73.040;2023-04-24T09:18:09;5.75;;;3.67;;
73331;SDS011;61560;33.718;73.040;2023-04-24T09:20:56;5.15;;;3.50;;
73331;SDS011;61560;33.718;73.040;2023-04-24T09:23:36;10.07;;;3.50;;
73331;SDS011;61560;33.718;73.040;2023-04-24T09:26:03;12.93;;;3.92;;
73331;SDS011;61560;33.718;73.040;2023-04-24T09:28:37;7.85;;;3.90;;
73331;SDS011;61560;33.718;73.040;2023-04-24T09:31:14;6.22;;;3.95;;
73331;SDS011;61560;33.718;73.040;2023-04-24T09:34:00;7.03;;;3.63;;
73331;SDS011;61560;33.718;73.040;2023-04-24T09:36:39;8.50;;;3.58;;
73331;SDS011;61560;33.718;73.040;2023-04-24T09:39:10;6.50;;;3.78;;
73331;SDS011;61560;33.718;73.040;2023-04-24T09:41:51;8.30;;;3.90;;
73331;SDS011;61560;33.718;73.040;2023-04-24T09:44:27;4.35;;;3.75;;
73331;SDS011;61560;33.718;73.040;2023-04-24T09:49:26;5.60;;;3.42;;
73331;SDS011;61560;33.718;73.040;2023-04-24T09:52:03;5.70;;;3.40;;
73331;SDS011;61560;33.718;73.040;2023-04-24T09:54:31;5.07;;;3.50;;
73331;SDS011;61560;33.718;73.040;2023-04-24T09:56:58;8.95;;;3.70;;
73331;SDS011;61560;33.718;73.040;2023-04-24T09:59:30;8.77;;;3.40;;
73331;SDS011;61560;33.718;73.040;2023-04-24T10:01:57;6.10;;;3.17;;
73331;SDS011;61560;33.718;73.040;2023-04-24T10:04:25;4.72;;;3.03;;
73331;SDS011;61560;33.718;73.040;2023-04-24T10:06:53;7.13;;;3.13;;
73331;SDS011;61560;33.718;73.040;2023-04-24T10:09:23;4.40;;;3.20;;
73331;SDS011;61560;33.718;73.040;2023-04-24T10:11:51;5.40;;;3.10;;
73331;SDS011;61560;33.718;73.040;2023-04-24T10:14:22;4.45;;;3.10;;
73331;SDS011;61560;33.718;73.040;2023-04-24T10:16:52;6.05;;;3.20;;
73331;SDS011;61560;33.718;73.040;2023-04-24T10:19:22;5.32;;;3.38;;
73331;SDS011;61560;33.718;73.040;2023-04-24T10:21:52;5.35;;;3.50;;
73331;SDS011;61560;33.718;73.040;2023-04-24T10:24:21;3.88;;;3.20;;
73331;SDS011;61560;33.718;73.040;2023-04-24T10:26:48;5.22;;;3.38;;
73331;SDS011;61560;33.718;73.040;2023-04-24T10:29:18;6.55;;;3.58;;
73331;SDS011;61560;33.718;73.040;2023-04-24T10:31:45;7.30;;;3.15;;
73331;SDS011;61560;33.718;73.040;2023-04-24T10:34:14;5.60;;;3.20;;
73331;SDS011;61560;33.718;73.040;2023-04-24T10:36:44;3.97;;;3.00;;
73331;SDS011;61560;33.718;73.040;2023-04-24T10:39:16;5.43;;;3.05;;
73331;SDS011;61560;33.718;73.040;2023-04-24T10:41:43;5.18;;;3.00;;
73331;SDS011;61560;33.718;73.040;2023-04-24T10:44:14;4.03;;;2.97;;
73331;SDS011;61560;33.718;73.040;2023-04-24T10:46:45;4.00;;;2.85;;
73331;SDS011;61560;33.718;73.040;2023-04-24T10:49:27;7.53;;;3.13;;
73331;SDS011;61560;33.718;73.040;2023-04-24T10:52:00;4.65;;;3.05;;
73331;SDS011;61560;33.718;73.040;2023-04-24T10:54:35;6.30;;;3.13;;
73331;SDS011;61560;33.718;73.040;2023-04-24T10:59:47;3.67;;;2.83;;
73331;SDS011;61560;33.718;73.040;2023-04-24T11:02:15;6.22;;;3.30;;
73331;SDS011;61560;33.718;73.040;2023-04-24T11:04:43;7.32;;;3.10;;
73331;SDS011;61560;33.718;73.040;2023-04-24T11:07:11;5.30;;;3.00;;
73331;SDS011;61560;33.718;73.040;2023-04-24T11:09:39;4.95;;;3.42;;
73331;SDS011;61560;33.718;73.040;2023-04-24T11:12:11;4.70;;;3.40;;
73331;SDS011;61560;33.718;73.040;2023-04-24T11:17:31;5.75;;;2.88;;
73331;SDS011;61560;33.718;73.040;2023-04-24T11:20:03;5.65;;;2.88;;
73331;SDS011;61560;33.718;73.040;2023-04-24T11:22:36;5.30;;;3.17;;
73331;SDS011;61560;33.718;73.040;2023-04-24T11:25:05;5.63;;;3.20;;
73331;SDS011;61560;33.718;73.040;2023-04-24T11:27:40;5.68;;;2.85;;
73331;SDS011;61560;33.718;73.040;2023-04-24T11:30:09;6.07;;;2.70;;
73331;SDS011;61560;33.718;73.040;2023-04-24T11:32:37;5.38;;;2.83;;
73331;SDS011;61560;33.718;73.040;2023-04-24T11:37:42;5.22;;;3.08;;
73331;SDS011;61560;33.718;73.040;2023-04-24T11:40:15;4.25;;;2.70;;
73331;SDS011;61560;33.718;73.040;2023-04-24T11:42:44;5.22;;;2.85;;
73331;SDS011;61560;33.718;73.040;2023-04-24T11:45:13;7.43;;;2.85;;
73331;SDS011;61560;33.718;73.040;2023-04-24T11:47:42;4.97;;;2.90;;
73331;SDS011;61560;33.718;73.040;2023-04-24T11:50:12;4.20;;;2.58;;
73331;SDS011;61560;33.718;73.040;2023-04-24T11:52:44;7.50;;;2.90;;
73331;SDS011;61560;33.718;73.040;2023-04-24T11:57:46;4.45;;;2.80;;
73331;SDS011;61560;33.718;73.040;2023-04-24T12:00:19;4.43;;;2.95;;
73331;SDS011;61560;33.718;73.040;2023-04-24T12:02:48;3.70;;;2.85;;
73331;SDS011;61560;33.718;73.040;2023-04-24T12:07:53;4.47;;;2.70;;
73331;SDS011;61560;33.718;73.040;2023-04-24T12:10:24;4.30;;;2.95;;
73331;SDS011;61560;33.718;73.040;2023-04-24T12:12:57;3.35;;;2.60;;
73331;SDS011;61560;33.718;73.040;2023-04-24T12:15:26;4.63;;;2.72;;
73331;SDS011;61560;33.718;73.040;2023-04-24T12:17:55;5.97;;;3.30;;
73331;SDS011;61560;33.718;73.040;2023-04-24T12:20:29;5.05;;;2.60;;
73331;SDS011;61560;33.718;73.040;2023-04-24T12:22:58;4.28;;;2.80;;
73331;SDS011;61560;33.718;73.040;2023-04-24T12:25:36;3.67;;;2.65;;
73331;SDS011;61560;33.718;73.040;2023-04-24T12:30:32;6.82;;;3.00;;
73331;SDS011;61560;33.718;73.040;2023-04-24T12:33:02;4.93;;;2.90;;
73331;SDS011;61560;33.718;73.040;2023-04-24T12:35:30;4.65;;;2.92;;
73331;SDS011;61560;33.718;73.040;2023-04-24T12:38:06;8.32;;;2.80;;
73331;SDS011;61560;33.718;73.040;2023-04-24T12:40:38;5.20;;;3.00;;
73331;SDS011;61560;33.718;73.040;2023-04-24T12:43:19;5.28;;;3.25;;
73331;SDS011;61560;33.718;73.040;2023-04-24T12:45:48;4.63;;;3.40;;
73331;SDS011;61560;33.718;73.040;2023-04-24T12:48:15;7.38;;;2.67;;
73331;SDS011;61560;33.718;73.040;2023-04-24T12:50:43;7.05;;;2.80;;
73331;SDS011;61560;33.718;73.040;2023-04-24T12:53:10;4.28;;;2.92;;
73331;SDS011;61560;33.718;73.040;2023-04-24T12:55:38;3.47;;;2.63;;
73331;SDS011;61560;33.718;73.040;2023-04-24T12:58:04;5.07;;;3.03;;
73331;SDS011;61560;33.718;73.040;2023-04-24T13:00:34;7.47;;;3.20;;
73331;SDS011;61560;33.718;73.040;2023-04-24T13:03:02;5.13;;;3.65;;
73331;SDS011;61560;33.718;73.040;2023-04-24T13:05:30;8.73;;;3.95;;
73331;SDS011;61560;33.718;73.040;2023-04-24T13:07:57;11.00;;;4.57;;
73331;SDS011;61560;33.718;73.040;2023-04-24T13:10:24;8.35;;;4.28;;
73331;SDS011;61560;33.718;73.040;2023-04-24T13:12:51;13.60;;;5.72;;
73331;SDS011;61560;33.718;73.040;2023-04-24T13:15:18;13.32;;;6.00;;
73331;SDS011;61560;33.718;73.040;2023-04-24T13:17:45;8.25;;;5.10;;
73331;SDS011;61560;33.718;73.040;2023-04-24T13:20:12;8.27;;;4.45;;
73331;SDS011;61560;33.718;73.040;2023-04-24T13:22:39;6.75;;;4.50;;
73331;SDS011;61560;33.718;73.040;2023-04-24T13:25:07;8.60;;;4.82;;
73331;SDS011;61560;33.718;73.040;2023-04-24T13:27:34;7.95;;;4.15;;
73331;SDS011;61560;33.718;73.040;2023-04-24T13:30:02;11.10;;;5.60;;
73331;SDS011;61560;33.718;73.040;2023-04-24T13:32:29;11.18;;;5.72;;
73331;SDS011;61560;33.718;73.040;2023-04-24T13:34:56;17.35;;;7.80;;
73331;SDS011;61560;33.718;73.040;2023-04-24T13:37:23;12.18;;;6.15;;
73331;SDS011;61560;33.718;73.040;2023-04-24T13:39:51;12.63;;;6.60;;
73331;SDS011;61560;33.718;73.040;2023-04-24T13:42:19;14.35;;;5.97;;
73331;SDS011;61560;33.718;73.040;2023-04-24T13:44:46;9.32;;;5.28;;
73331;SDS011;61560;33.718;73.040;2023-04-24T13:47:13;15.93;;;8.35;;
73331;SDS011;61560;33.718;73.040;2023-04-24T13:49:40;31.30;;;13.32;;
73331;SDS011;61560;33.718;73.040;2023-04-24T13:52:07;37.85;;;13.93;;
73331;SDS011;61560;33.718;73.040;2023-04-24T13:54:36;27.77;;;11.23;;
73331;SDS011;61560;33.718;73.040;2023-04-24T13:57:04;34.20;;;10.85;;
73331;SDS011;61560;33.718;73.040;2023-04-24T13:59:31;18.70;;;8.70;;
73331;SDS011;61560;33.718;73.040;2023-04-24T14:01:59;15.23;;;6.80;;
73331;SDS011;61560;33.718;73.040;2023-04-24T14:04:26;17.25;;;7.07;;
73331;SDS011;61560;33.718;73.040;2023-04-24T14:06:53;11.50;;;5.40;;
73331;SDS011;61560;33.718;73.040;2023-04-24T14:09:20;13.13;;;5.70;;
73331;SDS011;61560;33.718;73.040;2023-04-24T14:11:51;10.57;;;5.20;;
73331;SDS011;61560;33.718;73.040;2023-04-24T14:14:18;11.23;;;4.60;;
73331;SDS011;61560;33.718;73.040;2023-04-24T14:16:45;14.75;;;5.13;;
73331;SDS011;61560;33.718;73.040;2023-04-24T14:19:13;13.35;;;5.53;;
73331;SDS011;61560;33.718;73.040;2023-04-24T14:21:39;15.38;;;5.32;;
73331;SDS011;61560;33.718;73.040;2023-04-24T14:24:07;13.02;;;5.50;;
73331;SDS011;61560;33.718;73.040;2023-04-24T14:26:35;11.90;;;5.43;;
73331;SDS011;61560;33.718;73.040;2023-04-24T14:29:01;10.88;;;4.95;;
73331;SDS011;61560;33.718;73.040;2023-04-24T14:31:29;9.60;;;4.82;;
73331;SDS011;61560;33.718;73.040;2023-04-24T14:33:57;7.65;;;4.25;;
73331;SDS011;61560;33.718;73.040;2023-04-24T14:36:24;7.68;;;4.15;;
73331;SDS011;61560;33.718;73.040;2023-04-24T14:38:52;9.63;;;4.57;;
73331;SDS011;61560;33.718;73.040;2023-04-24T14:41:19;8.60;;;4.93;;
73331;SDS011;61560;33.718;73.040;2023-04-24T14:43:46;10.00;;;4.45;;
73331;SDS011;61560;33.718;73.040;2023-04-24T14:46:13;11.35;;;4.38;;
73331;SDS011;61560;33.718;73.040;2023-04-24T14:48:40;7.43;;;4.55;;
73331;SDS011;61560;33.718;73.040;2023-04-24T14:51:06;6.85;;;3.97;;
73331;SDS011;61560;33.718;73.040;2023-04-24T14:53:34;11.48;;;4.35;;
73331;SDS011;61560;33.718;73.040;2023-04-24T14:56:01;8.63;;;3.90;;
73331;SDS011;61560;33.718;73.040;2023-04-24T14:58:28;8.82;;;3.75;;
73331;SDS011;61560;33.718;73.040;2023-04-24T15:00:55;9.52;;;4.93;;
73331;SDS011;61560;33.718;73.040;2023-04-24T15:03:24;9.60;;;4.70;;
73331;SDS011;61560;33.718;73.040;2023-04-24T15:05:52;9.45;;;4.90;;
73331;SDS011;61560;33.718;73.040;2023-04-24T15:08:20;10.23;;;5.07;;